createdAt,value
2022-10-11T00:04:35.599Z,90.64
2022-10-11T00:09:42.801Z,90.47
2022-10-11T00:14:48.487Z,90.17
2022-10-11T00:19:55.676Z,90.19
2022-10-11T00:25:05.573Z,90.29
2022-10-11T00:30:14.467Z,90.31
2022-10-11T00:35:22.307Z,90.39
2022-10-11T00:40:29.718Z,90.57
2022-10-11T00:46:26.469Z,90.37
2022-10-11T00:51:48.446Z,90.53
2022-10-11T00:56:59.484Z,90.71
2022-10-11T01:02:08.131Z,90.47
2022-10-11T01:07:16.170Z,90.29
2022-10-11T01:12:28.097Z,90.43
2022-10-11T01:17:42.592Z,90.49
2022-10-11T01:23:23.689Z,90.88
2022-10-11T01:28:43.666Z,90.90
2022-10-11T01:33:56.862Z,90.64
2022-10-11T01:39:11.784Z,90.95
2022-10-11T01:44:19.763Z,91.13
2022-10-11T01:49:27.386Z,91.18
2022-10-11T01:55:08.277Z,91.02
2022-10-11T02:00:17.826Z,91.22
2022-10-11T02:05:38.247Z,91.39
2022-10-11T02:10:49.974Z,92.05
2022-10-11T02:16:00.411Z,91.88
2022-10-11T02:21:11.081Z,92.41
2022-10-11T02:26:21.061Z,93.32
2022-10-11T02:31:29.278Z,93.10
2022-10-11T02:36:44.742Z,93.25
2022-10-11T02:41:57.208Z,93.01
2022-10-11T02:47:05.582Z,93.08
2022-10-11T02:52:12.736Z,93.01
2022-10-11T02:57:19.984Z,93.05
2022-10-11T03:02:25.712Z,93.00
2022-10-11T03:07:32.649Z,92.80
2022-10-11T03:12:38.512Z,92.69
2022-10-11T03:17:45.512Z,92.88
2022-10-11T03:22:52.792Z,92.49
2022-10-11T03:28:00.099Z,92.51
2022-10-11T03:33:05.800Z,92.05
2022-10-11T03:38:16.612Z,92.14
2022-10-11T03:43:23.899Z,92.55
2022-10-11T03:48:31.193Z,92.65
2022-10-11T03:53:39.254Z,92.41
2022-10-11T03:58:46.459Z,92.57
2022-10-11T04:03:51.703Z,92.48
2022-10-11T04:08:58.895Z,92.33
2022-10-11T04:14:06.213Z,92.38
2022-10-11T04:19:13.827Z,92.23
2022-10-11T04:24:21.403Z,92.09
2022-10-11T04:29:32.618Z,92.22
2022-10-11T04:34:40.230Z,92.10
2022-10-11T04:39:47.494Z,92.07
2022-10-11T04:44:54.487Z,91.89
2022-10-11T04:50:05.163Z,91.57
2022-10-11T04:55:13.343Z,91.47
2022-10-11T05:00:22.307Z,91.52
2022-10-11T05:05:30.087Z,91.17
2022-10-11T05:10:37.501Z,90.97
2022-10-11T05:15:44.815Z,90.97
2022-10-11T05:20:51.550Z,90.99
2022-10-11T05:25:59.337Z,90.84
2022-10-11T05:31:07.631Z,90.52
2022-10-11T05:36:15.477Z,90.48
2022-10-11T05:41:22.684Z,90.41
2022-10-11T05:46:30.205Z,90.49
2022-10-11T05:51:37.480Z,90.59
2022-10-11T05:56:44.608Z,90.14
2022-10-11T06:01:52.094Z,89.95
2022-10-11T06:07:00.147Z,90.14
2022-10-11T06:12:10.048Z,89.99
2022-10-11T06:17:17.926Z,90.40
2022-10-11T06:22:25.650Z,90.43
2022-10-11T06:27:32.940Z,90.51
2022-10-11T06:32:43.422Z,90.24
2022-10-11T06:37:51.645Z,90.40
2022-10-11T06:42:58.693Z,90.72
2022-10-11T06:48:07.625Z,90.74
2022-10-11T06:53:15.306Z,90.93
2022-10-11T06:58:22.420Z,90.75
2022-10-11T07:03:29.553Z,90.19
2022-10-11T07:08:37.959Z,89.70
2022-10-11T07:13:45.583Z,89.70
2022-10-11T07:19:00.251Z,88.57
2022-10-11T07:24:09.645Z,88.18
2022-10-11T07:29:17.456Z,88.19
2022-10-11T07:34:25.137Z,87.50
2022-10-11T07:39:32.560Z,87.31
2022-10-11T07:44:39.712Z,88.13
2022-10-11T07:49:47.114Z,88.38
2022-10-11T07:54:54.098Z,88.21
2022-10-11T08:00:01.155Z,88.59
2022-10-11T08:05:09.819Z,88.42
2022-10-11T08:10:19.125Z,88.48
2022-10-11T08:15:27.165Z,88.65
2022-10-11T08:20:34.917Z,88.48
2022-10-11T08:25:45.350Z,88.62
2022-10-11T08:30:54.578Z,89.05
2022-10-11T08:36:05.280Z,88.77
2022-10-11T08:41:32.018Z,89.01
2022-10-11T08:46:41.639Z,88.99
2022-10-11T08:51:52.662Z,88.47
2022-10-11T08:56:59.888Z,88.17
2022-10-11T09:02:21.285Z,88.05
2022-10-11T09:07:43.603Z,87.76
2022-10-11T09:12:59.414Z,87.10
2022-10-11T09:18:31.043Z,85.71
2022-10-11T09:23:55.024Z,85.14
2022-10-11T09:29:11.859Z,83.75
2022-10-11T09:34:20.095Z,83.22
2022-10-11T09:39:33.747Z,82.93
2022-10-11T09:44:42.997Z,82.43
2022-10-11T09:49:55.639Z,82.39
2022-10-11T09:55:04.386Z,81.59
2022-10-11T10:00:25.126Z,81.26
2022-10-11T10:05:34.065Z,80.91
2022-10-11T10:10:44.600Z,80.60
2022-10-11T10:15:54.678Z,79.79
2022-10-11T10:21:03.015Z,80.04
2022-10-11T10:26:17.893Z,79.60
2022-10-11T10:31:40.257Z,78.82
2022-10-11T10:37:05.256Z,78.62
2022-10-11T10:42:17.963Z,78.68
2022-10-11T10:47:43.667Z,78.78
2022-10-11T10:53:04.166Z,78.82
2022-10-11T10:58:26.668Z,78.66
2022-10-11T11:03:45.001Z,79.13
2022-10-11T11:09:03.161Z,79.07
2022-10-11T11:14:24.104Z,79.26
2022-10-11T11:19:46.664Z,78.97
2022-10-11T11:25:06.915Z,77.97
2022-10-11T11:30:20.883Z,77.48
2022-10-11T11:35:34.691Z,76.98
2022-10-11T11:40:46.290Z,76.30
2022-10-11T11:45:58.392Z,75.43
2022-10-11T11:51:11.749Z,74.97
2022-10-11T11:56:30.718Z,74.22
2022-10-11T12:01:44.722Z,74.09
2022-10-11T12:07:15.902Z,74.09
2022-10-11T12:12:34.316Z,74.26
2022-10-11T12:18:17.858Z,74.03
2022-10-11T12:23:47.503Z,73.76
2022-10-11T12:29:29.226Z,73.72
2022-10-11T12:39:54.797Z,73.41
2022-10-11T12:45:34.767Z,73.15
2022-10-11T12:50:51.698Z,72.73
2022-10-11T12:56:05.720Z,72.07
2022-10-11T13:01:19.265Z,72.23
2022-10-11T13:06:30.289Z,71.37
2022-10-11T13:11:41.796Z,71.33
2022-10-11T13:17:00.169Z,71.66
2022-10-11T13:22:17.185Z,72.12
2022-10-11T13:27:27.561Z,72.26
2022-10-11T13:32:37.324Z,72.95
2022-10-11T13:37:47.859Z,73.53
2022-10-11T13:42:56.610Z,74.28
2022-10-11T13:48:03.996Z,74.67
2022-10-11T13:53:26.212Z,75.02
2022-10-11T13:58:38.988Z,74.94
2022-10-11T14:03:50.626Z,74.94
2022-10-11T14:09:00.325Z,74.86
2022-10-11T14:14:41.660Z,74.86
2022-10-11T14:20:08.738Z,74.97
2022-10-11T14:25:18.879Z,75.11
2022-10-11T14:30:28.164Z,74.86
2022-10-11T14:35:36.519Z,74.58
2022-10-11T14:40:44.001Z,74.46
2022-10-11T14:45:51.742Z,74.37
2022-10-11T14:51:02.771Z,74.39
2022-10-11T14:56:11.126Z,74.68
2022-10-11T15:01:19.808Z,75.26
2022-10-11T15:06:31.615Z,75.18
2022-10-11T15:11:40.052Z,75.27
2022-10-11T15:16:47.701Z,75.50
2022-10-11T15:21:55.278Z,75.73
2022-10-11T15:27:02.655Z,76.17
2022-10-11T15:32:34.492Z,76.37
2022-10-11T15:37:41.849Z,76.70
2022-10-11T15:42:50.440Z,77.12
2022-10-11T15:47:58.377Z,77.45
2022-10-11T15:53:09.477Z,77.76
2022-10-11T15:58:18.645Z,77.95
2022-10-11T16:03:27.429Z,78.61
2022-10-11T16:08:35.589Z,78.83
2022-10-11T16:13:42.997Z,79.28
2022-10-11T16:18:52.468Z,79.74
2022-10-11T16:23:59.676Z,79.82
2022-10-11T16:29:06.962Z,80.07
2022-10-11T16:34:14.022Z,80.63
2022-10-11T16:39:21.592Z,80.75
2022-10-11T16:44:28.454Z,80.90
2022-10-11T16:49:35.487Z,81.64
2022-10-11T16:54:45.561Z,81.62
2022-10-11T16:59:52.975Z,82.02
2022-10-11T17:04:59.973Z,82.87
2022-10-11T17:10:09.380Z,83.41
2022-10-11T17:15:16.611Z,83.87
2022-10-11T17:20:23.806Z,84.47
2022-10-11T17:25:31.183Z,84.47
2022-10-11T17:30:41.262Z,84.12
2022-10-11T17:35:48.306Z,84.05
2022-10-11T17:41:02.287Z,83.38
2022-10-11T17:46:10.682Z,84.33
2022-10-11T17:51:19.987Z,84.99
2022-10-11T17:56:33.679Z,84.99
2022-10-11T18:01:44.513Z,85.63
2022-10-11T18:06:51.935Z,85.61
2022-10-11T18:11:59.260Z,86.25
2022-10-11T18:17:06.521Z,87.04
2022-10-11T18:22:13.895Z,88.01
2022-10-11T18:27:21.558Z,87.01
2022-10-11T18:32:29.207Z,87.77
2022-10-11T18:37:37.961Z,87.58
2022-10-11T18:42:45.614Z,86.78
2022-10-11T18:47:54.113Z,86.85
2022-10-11T18:53:01.262Z,87.22
2022-10-11T18:58:08.503Z,87.27
2022-10-11T19:03:15.667Z,87.86
2022-10-11T19:08:21.064Z,87.99
2022-10-11T19:13:28.552Z,87.85
2022-10-11T19:18:40.421Z,87.93
2022-10-11T19:23:52.518Z,88.36
2022-10-11T19:29:02.542Z,88.71
2022-10-11T19:34:10.575Z,88.78
2022-10-11T19:39:19.131Z,88.60
2022-10-11T19:44:26.214Z,88.61
2022-10-11T19:49:33.407Z,88.95
2022-10-11T19:54:41.292Z,88.95
2022-10-11T19:59:48.158Z,90.10
2022-10-11T20:04:55.354Z,90.51
2022-10-11T20:10:06.313Z,90.14
2022-10-11T20:15:15.506Z,89.59
2022-10-11T20:20:23.768Z,89.61
2022-10-11T20:25:31.881Z,89.86
2022-10-11T20:30:44.562Z,89.73
2022-10-11T20:36:02.860Z,90.08
2022-10-11T20:41:12.239Z,90.20
2022-10-11T20:46:21.403Z,90.42
2022-10-11T20:51:29.539Z,90.13
2022-10-11T20:56:38.011Z,89.70
2022-10-11T21:01:45.372Z,89.66
2022-10-11T21:06:53.103Z,90.01
2022-10-11T21:12:01.506Z,89.50
2022-10-11T21:17:08.838Z,89.74
2022-10-11T21:22:16.556Z,89.91
2022-10-11T21:27:25.001Z,90.52
2022-10-11T21:32:32.438Z,90.71
2022-10-11T21:37:40.011Z,90.73
2022-10-11T21:42:47.162Z,90.23
2022-10-11T21:47:52.480Z,90.22
2022-10-11T21:52:59.632Z,90.16
2022-10-11T21:58:09.661Z,89.60
2022-10-11T22:03:16.658Z,90.07
2022-10-11T22:08:24.437Z,90.34
2022-10-11T22:13:33.158Z,90.61
2022-10-11T22:18:42.705Z,90.95
2022-10-11T22:23:51.930Z,90.60
2022-10-11T22:29:00.114Z,90.12
2022-10-11T22:34:07.466Z,90.21
2022-10-11T22:39:14.640Z,90.11
2022-10-11T22:44:22.274Z,90.10
2022-10-11T22:49:29.451Z,90.33
2022-10-11T22:54:34.782Z,90.03
2022-10-11T22:59:41.952Z,90.08
2022-10-11T23:04:49.416Z,90.01
2022-10-11T23:09:56.939Z,89.77
2022-10-11T23:15:05.664Z,89.99
2022-10-11T23:20:27.927Z,89.99
2022-10-11T23:25:35.176Z,90.10
2022-10-11T23:30:43.753Z,90.19
2022-10-11T23:35:50.596Z,90.19
2022-10-11T23:40:58.058Z,89.92
2022-10-11T23:46:05.823Z,89.96
2022-10-11T23:51:11.467Z,90.41
2022-10-11T23:56:18.633Z,90.46
